Aberdeen, SD

1:33 PM CST on February 14, 2016 (GMT -0600)
St. Mary's Church | | Change Station
CLOSE
Current Station
Personal Weather Station
Location: Aberdeen, SD
Elevation: 1302 ft
Nearby Weather Stations

Elev 1302 ft 45.47 °N, 98.48 °W | Updated 23 seconds ago

Overcast
Overcast
23.5 °F
Feels Like 18 °F
N
4.3
Wind Variable Wind from ESE
Gusts 5.0 mph

Today
High -- | Low -- °F
--% Chance of Precip.
Yesterday
High -- | Low -- °F
Precip. -- in
Pressure 29.77 in
Visibility 10.0 miles
Clouds Scattered Clouds 800 ft
Mostly Cloudy 1600 ft
Overcast 2200 ft
Windchill 18 °F
Dew Point 21 °F
Humidity 90%
Rainfall 0.00 in
Snow Depth Not available.
7:37 AM 5:59 PM
Waxing Crescent, 44% visible
SPECI KABR 141921Z AUTO 19011KT 10SM SCT008 BKN016 OVC022 M05/M08 A2977 RMK AO2 T10501083 $
Pressure 29.77 in
Visibility 10.0 miles
Clouds Scattered Clouds 800 ft
Mostly Cloudy 1600 ft
Overcast 2200 ft
Windchill 18 °F
Dew Point 21 °F
Humidity 90%
Rainfall 0.00 in
Snow Depth Not available.
7:37 AM 5:59 PM
Waxing Crescent, 44% visible
SPECI KABR 141921Z AUTO 19011KT 10SM SCT008 BKN016 OVC022 M05/M08 A2977 RMK AO2 T10501083 $

10-Day Weather Forecast

Almanac

Astronomy

Feb. 14, 2016 Rise Set
Actual Time
Civil Twilight
Nautical Twilight
Astronomical Twilight
Moon
Length of Visible Light
Length of Day
Tomorrow will be .
, % of the Moon is Illuminated

Today's Extremes

State Highs State Lows

Community

WunderPhotos

Upload Photos

1,892,878 photos uploaded!

WunderBlog® & News

Nearby

Air Quality

  Air Quality AQ Index Pollutant
Not available.

Snow Depth

Station Depth Elevation

Earthquake Activity

City Distance Mag. Time & Date
Minimum magnitude displayed is 2.5.

Coastal Water Temperatures

Place Temperature

Stations

Nearby Weather Stations

Station Location Temp. Windchill Dew Point Humidity Wind Precip. Elev Updated Type
                   

Watches & Warnings

There are currently no watches in effect.